Crown Point, Indiana
Current Conditions -  °F | °C
As of 8:35 PM on Tuesday 21 Oct 2014 (Local Time) from KIGQ Reporting Station
Overcast Overcast  
Wind Chill: 47°   Ceiling: 2900
Heat Index: 49°   Visibility: 10mi
Dew Point: 38°   Wind: 6mph
Humidity: 67%   Direction: 10°N
Pressure: 30.24"   Gusts: NA
Location:  41.42°N, 87.36°W
Report Text: KIGQ 220135Z AUTO 01005KT 10SM OVC029 10/04 A3024 RMK AO2 T00950036
Loading
Personal Weather Stations






























Interactive Weather Map
Tropical Storm Tracking
New forecast layout! Learn more

10-Day Weather Forecast

Advertisements
Track Severe Weather on mobile